Terminal Aerodrome Forecast
Issued by NWS

Home | Current Version | Previous Version | Text Only | Print | Product List | Glossary On
Versions: 1 2 3 4 5 6 7 8 9 10 11 12 13
000
FTUS43 KDTX 211724
TAFMBS
TAF
KMBS 211724Z 2118/2218 25007KT P6SM BKN022 OVC060
     FM212300 24004KT P6SM SCT025
     FM220500 22003KT 4SM BR BKN015
      TEMPO 2210/2214 1/2SM FG BKN008
     FM221500 23010KT P6SM SCT025=

USA.gov is the U.S. government's official web portal to all federal, state and local government web resources and services.